PATA

Details ICAO PATA
Name RALPH M CALHOUN MEM
Region USA (Alaska)
Timezone America/Anchorage (UTC-9.0)
Plans Departing 10
Arriving 4
Stats Elevation 227 ft / 69 m (AMSL)
Location 65.174403° -152.109385°
Runways 1
Magnetic Variation 15.995° E
Sunrise 2017-12-15 20:18:14 UTC / 2017-12-15 11:18:14 Local
Sunset 2017-12-15 23:52:08 UTC / 2017-12-15 14:52:08 Local
Advertisement - Login to hide

Runways

ID Width Length Bearing (true) Bearing (mag) Surface Threshold Offset Overrun Length
07 150 ft / 46 m 4,372 ft / 1,333 m 89.30° 73.31° Gravel 0 ft / 0 m 420 ft / 128 m
25 150 ft / 46 m 4,372 ft / 1,333 m 269.32° 253.33° Gravel 0 ft / 0 m 200 ft / 61 m

Map

Weather


0- 5 10 15 20 25 30 35+ Temperature / ° C

Clouds and Precipitation
Forecast for 2017-12-15 12:00 UTC. Updated an hour ago

Ground ~20,000 ft ~40,000 ft Winds

METAR

PATA 151152Z AUTO 00000KT 10SM SCT065 OVC100 M10/M11 A2962 RMK AO2 SLP035 I6001 T11001111 11094 21117 51004 TSNO PNO

TAF

PATA 151139Z 1512/1612 VRB02KT P6SM OVC110 FM151500 VRB03KT 3SM -SN BR BKN040 OVC100 FM152200 08008KT P6SM SCT040 BKN100 FM160700 08008KT 5SM -SN BR BKN040 OVC100

Frequencies

Recorded 135.10 MHz ASOS
Unicom 122.90 MHz CTAF
Warning: Do not use this data for real-world aviation or navigation. No guarantee of current accuracy is given.